Time;durP1;ratioP1;P1;durP2;ratioP2;P2;SDS_P1;SDS_P2;PMS_P1;PMS_P2;Temp;Humidity;BMP_temperature;BMP_pressure;BME280_temperature;BME280_humidity;BME280_pressure;Samples;Min_cycle;Max_cycle;Signal;HPM_P1;HPM_P2
2022/03/02 00:02:07;;;;;;;32.78;20.85;;;179.90;2252.80;;;;;;4974330;28;20058;-66
2022/03/02 00:04:32;;;;;;;32.30;19.85;;;180.00;2252.80;;;;;;4974193;28;20470;-65
2022/03/02 00:06:58;;;;;;;34.63;21.52;;;179.90;2252.80;;;;;;4974236;28;20039;-66
2022/03/02 00:09:24;;;;;;;51.53;23.20;;;179.80;2252.80;;;;;;4974706;28;20466;-66
2022/03/02 00:11:50;;;;;;;37.03;22.25;;;179.70;2252.80;;;;;;4974037;28;20118;-66
2022/03/02 00:14:16;;;;;;;42.00;25.15;;;179.70;2252.80;;;;;;4972796;28;20023;-66
2022/03/02 00:16:41;;;;;;;27.92;19.98;;;179.70;2252.80;;;;;;4974308;28;20035;-65
2022/03/02 00:19:08;;;;;;;32.72;20.10;;;179.90;2252.80;;;;;;4974088;28;20474;-65
2022/03/02 00:21:35;;;;;;;28.58;20.48;;;179.80;2252.80;;;;;;4974007;28;20027;-66
2022/03/02 00:24:03;;;;;;;30.90;21.02;;;179.70;2252.80;;;;;;4975281;28;20027;-66
2022/03/02 00:26:32;;;;;;;31.48;20.77;;;179.60;2252.80;;;;;;4977805;28;20130;-66
2022/03/02 00:28:59;;;;;;;26.65;19.50;;;179.70;2252.80;;;;;;4977917;28;20026;-65
2022/03/02 00:31:24;;;;;;;35.50;20.95;;;179.90;2252.80;;;;;;4977886;28;20027;-66
2022/03/02 00:33:51;;;;;;;31.42;20.05;;;180.10;2252.80;;;;;;4977888;28;20026;-66
2022/03/02 00:36:17;;;;;;;33.17;21.08;;;180.00;2252.80;;;;;;4960957;28;20385;-66
2022/03/02 00:38:43;;;;;;;32.53;21.73;;;180.00;2252.80;;;;;;4977793;28;20053;-65
2022/03/02 00:41:09;;;;;;;34.40;22.77;;;180.00;2252.80;;;;;;4977647;28;20109;-66
2022/03/02 00:43:34;;;;;;;37.03;23.40;;;180.10;2252.80;;;;;;4977453;28;20039;-65
2022/03/02 00:46:01;;;;;;;32.22;21.35;;;180.00;2252.80;;;;;;4977752;28;20045;-65
2022/03/02 00:48:27;;;;;;;36.40;23.30;;;180.10;2252.80;;;;;;4977731;28;20533;-65
2022/03/02 00:50:53;;;;;;;34.13;22.67;;;180.10;2252.80;;;;;;4977580;28;20117;-66
2022/03/02 00:53:19;;;;;;;28.27;18.67;;;180.00;2252.80;;;;;;4977486;28;20023;-66
2022/03/02 00:55:45;;;;;;;31.05;19.33;;;179.80;2252.80;;;;;;4977570;28;20451;-65
2022/03/02 00:58:11;;;;;;;27.08;18.17;;;179.80;2252.80;;;;;;4977161;28;20050;-65
2022/03/02 01:00:37;;;;;;;29.40;19.10;;;179.80;2252.80;;;;;;4977438;28;20037;-65
2022/03/02 01:03:03;;;;;;;26.90;18.42;;;180.00;2252.80;;;;;;4977358;28;20027;-65
2022/03/02 01:05:29;;;;;;;32.10;19.52;;;179.90;2252.80;;;;;;4977417;28;20534;-66
2022/03/02 01:07:58;;;;;;;49.67;36.53;;;180.00;2227.20;;;;;;4977322;28;20046;-65
2022/03/02 01:10:24;;;;;;;49.53;34.13;;;179.90;2252.80;;;;;;4977225;28;20106;-66
2022/03/02 01:12:50;;;;;;;41.58;37.08;;;180.00;2227.20;;;;;;4976865;28;20123;-65
2022/03/02 01:15:17;;;;;;;28.17;19.50;;;179.80;2252.80;;;;;;4959895;28;20086;-66
2022/03/02 01:17:43;;;;;;;31.25;20.92;;;179.70;2252.80;;;;;;4977035;28;20027;-66
2022/03/02 01:20:11;;;;;;;33.22;21.65;;;179.90;2227.20;;;;;;4977091;28;20378;-65
2022/03/02 01:22:37;;;;;;;31.30;21.02;;;179.90;2227.20;;;;;;4977282;28;20443;-66
2022/03/02 01:25:04;;;;;;;27.55;18.63;;;179.70;2252.80;;;;;;4976964;28;20030;-66
2022/03/02 01:27:30;;;;;;;22.27;17.13;;;179.70;2252.80;;;;;;4976745;28;20113;-65
2022/03/02 01:29:56;;;;;;;25.55;17.45;;;179.70;2252.80;;;;;;4976728;28;20058;-66
2022/03/02 01:32:22;;;;;;;25.42;17.58;;;179.60;2252.80;;;;;;4976857;28;20107;-65
2022/03/02 01:34:48;;;;;;;30.00;22.02;;;179.70;2227.20;;;;;;4959591;28;20057;-65
2022/03/02 01:37:14;;;;;;;27.50;18.85;;;179.80;2227.20;;;;;;4976750;28;20022;-65
2022/03/02 01:39:40;;;;;;;32.13;19.75;;;179.70;2252.80;;;;;;4976680;28;20018;-65
2022/03/02 01:42:06;;;;;;;32.95;26.63;;;179.80;2227.20;;;;;;4976307;28;20065;-65
2022/03/02 01:44:34;;;;;;;33.60;26.63;;;179.70;2227.20;;;;;;4976772;28;20027;-66
2022/03/02 01:47:00;;;;;;;32.00;21.30;;;179.90;2201.60;;;;;;4976454;28;20114;-65
2022/03/02 01:49:26;;;;;;;34.40;24.63;;;;;;;;;;4976530;28;20573;-66
2022/03/02 01:51:52;;;;;;;33.65;25.60;;;179.80;2176.00;;;;;;4976619;28;20042;-65
2022/03/02 01:54:18;;;;;;;27.35;18.23;;;179.90;2201.60;;;;;;4976519;28;20512;-65
2022/03/02 01:56:44;;;;;;;33.63;22.17;;;179.70;2176.00;;;;;;4976813;28;20027;-65
2022/03/02 01:59:10;;;;;;;33.75;25.17;;;179.80;2176.00;;;;;;4976291;28;20030;-65
2022/03/02 02:01:36;;;;;;;28.60;19.02;;;179.80;2176.00;;;;;;4976450;28;20038;-65
2022/03/02 02:04:03;;;;;;;37.17;24.13;;;179.80;2201.60;;;;;;4976355;28;20434;-65
2022/03/02 02:06:30;;;;;;;33.40;21.38;;;179.90;2176.00;;;;;;4976469;28;20090;-65
2022/03/02 02:08:59;;;;;;;27.33;19.25;;;180.00;2150.40;;;;;;4976195;28;20026;-66
2022/03/02 02:11:25;;;;;;;30.38;19.13;;;179.90;2150.40;;;;;;4976070;28;20046;-65
2022/03/02 02:13:51;;;;;;;26.48;17.80;;;179.90;2176.00;;;;;;4976528;28;20027;-66
2022/03/02 02:16:20;;;;;;;26.80;16.80;;;179.90;2150.40;;;;;;4976017;28;20366;-65
2022/03/02 02:18:46;;;;;;;26.80;17.85;;;179.80;2150.40;;;;;;4976029;28;20366;-66
2022/03/02 02:21:12;;;;;;;26.42;17.17;;;179.90;2150.40;;;;;;4976035;28;20027;-66
2022/03/02 02:23:39;;;;;;;29.48;18.27;;;180.00;2124.80;;;;;;4975909;28;20034;-65
2022/03/02 02:26:06;;;;;;;30.25;18.90;;;180.00;2124.80;;;;;;4975925;28;20035;-66
2022/03/02 02:28:32;;;;;;;22.77;15.85;;;180.00;2124.80;;;;;;4975869;28;20097;-66
2022/03/02 02:31:00;;;;;;;26.17;17.70;;;180.00;2124.80;;;;;;4975873;28;20114;-65
2022/03/02 02:33:27;;;;;;;30.80;18.10;;;180.00;2124.80;;;;;;4975924;28;20481;-66
2022/03/02 02:35:53;;;;;;;25.63;17.63;;;179.90;2124.80;;;;;;4975820;28;20478;-66
2022/03/02 02:38:21;;;;;;;26.70;17.98;;;179.80;2124.80;;;;;;4975591;28;20027;-66
2022/03/02 02:40:50;;;;;;;26.60;17.35;;;179.80;2150.40;;;;;;4975817;28;20386;-65
2022/03/02 02:43:18;;;;;;;37.80;18.38;;;180.00;2099.20;;;;;;4975200;28;20054;-66
2022/03/02 02:45:44;;;;;;;30.80;18.27;;;179.90;2099.20;;;;;;4975306;28;20034;-66
2022/03/02 02:48:10;;;;;;;27.20;17.75;;;179.90;2099.20;;;;;;4974842;28;20027;-65
2022/03/02 02:50:36;;;;;;;28.75;18.35;;;180.00;2099.20;;;;;;4975423;28;20035;-65
2022/03/02 02:53:05;;;;;;;23.88;15.57;;;180.00;2099.20;;;;;;4975232;28;20122;-66
2022/03/02 02:55:31;;;;;;;25.58;15.45;;;179.90;2099.20;;;;;;4957762;28;20497;-66
2022/03/02 02:57:58;;;;;;;28.08;17.17;;;179.90;2099.20;;;;;;4975497;28;20035;-65
2022/03/02 03:00:25;;;;;;;33.08;18.55;;;;;;;;;;4975398;28;20430;-66
2022/03/02 03:02:52;;;;;;;23.73;16.15;;;179.80;2124.80;;;;;;4975341;28;20034;-66
2022/03/02 03:05:21;;;;;;;25.55;16.30;;;179.90;2099.20;;;;;;4973939;28;20512;-66
2022/03/02 03:07:48;;;;;;;22.98;15.02;;;179.90;2073.60;;;;;;4975139;28;20039;-66
2022/03/02 03:10:15;;;;;;;26.67;15.95;;;179.90;2073.60;;;;;;4975155;28;20120;-65
2022/03/02 03:12:42;;;;;;;26.60;16.25;;;179.90;2073.60;;;;;;4975060;28;20074;-65
2022/03/02 03:15:11;;;;;;;21.88;14.65;;;179.80;2099.20;;;;;;4975032;28;20026;-66
2022/03/02 03:17:37;;;;;;;22.27;16.15;;;179.90;2048.00;;;;;;4974841;28;20038;-66
2022/03/02 03:20:05;;;;;;;24.20;17.00;;;180.00;2048.00;;;;;;4974820;28;20109;-65
2022/03/02 03:22:31;;;;;;;25.35;16.23;;;180.10;2048.00;;;;;;4974898;28;20035;-66
2022/03/02 03:24:57;;;;;;;25.40;20.05;;;180.00;2048.00;;;;;;4974596;28;20038;-65
2022/03/02 03:27:23;;;;;;;30.65;18.75;;;180.10;2048.00;;;;;;4974659;28;20034;-65
2022/03/02 03:29:48;;;;;;;24.50;16.92;;;180.10;2048.00;;;;;;4974834;28;20485;-66
2022/03/02 03:32:14;;;;;;;25.65;17.20;;;180.10;2022.40;;;;;;4974746;28;20473;-65
2022/03/02 03:34:40;;;;;;;28.98;18.77;;;204.80;2022.40;;;;;;4974894;28;20031;-66
2022/03/02 03:37:06;;;;;;;27.15;16.60;;;180.10;2048.00;;;;;;4974616;28;20027;-66
2022/03/02 03:39:31;;;;;;;23.05;16.80;;;204.80;1996.80;;;;;;4974498;28;20038;-65
2022/03/02 03:41:57;;;;;;;26.30;16.60;;;180.10;2022.40;;;;;;4974086;28;20409;-66
2022/03/02 03:44:23;;;;;;;38.42;26.30;;;179.80;2022.40;;;;;;4974349;28;20038;-66
2022/03/02 03:46:49;;;;;;;32.33;19.95;;;180.00;2022.40;;;;;;4974334;28;20041;-65
2022/03/02 03:49:15;;;;;;;31.48;19.35;;;180.00;2022.40;;;;;;4974606;28;20027;-65
2022/03/02 03:51:41;;;;;;;32.08;20.45;;;179.80;2048.00;;;;;;4974445;28;20030;-65
2022/03/02 03:54:08;;;;;;;26.80;17.13;;;179.90;2048.00;;;;;;4974399;28;20023;-66
2022/03/02 03:56:34;;;;;;;32.35;18.65;;;179.90;2022.40;;;;;;4974246;28;20023;-65
2022/03/02 03:58:59;;;;;;;31.95;18.65;;;180.00;1996.80;;;;;;4974285;28;20031;-65
2022/03/02 04:01:26;;;;;;;29.90;19.38;;;179.70;2022.40;;;;;;4974453;28;20118;-66
2022/03/02 04:03:52;;;;;;;32.47;18.15;;;179.70;2022.40;;;;;;4974386;28;20019;-65
2022/03/02 04:06:18;;;;;;;29.25;18.23;;;179.80;1996.80;;;;;;4974260;28;20391;-66
2022/03/02 04:08:43;;;;;;;25.02;18.58;;;179.80;2022.40;;;;;;4974209;28;20053;-65
2022/03/02 04:11:10;;;;;;;27.15;17.08;;;;;;;;;;4974047;28;20023;-67
2022/03/02 04:13:36;;;;;;;25.08;16.02;;;;;;;;;;4974209;28;20029;-65
2022/03/02 04:16:02;;;;;;;27.00;17.25;;;;;;;;;;4974096;28;20030;-64
2022/03/02 04:18:28;;;;;;;25.75;16.38;;;179.80;2252.80;;;;;;4974141;28;20381;-65
2022/03/02 04:20:53;;;;;;;21.85;15.43;;;179.90;1996.80;;;;;;4974013;28;20023;-66
2022/03/02 04:23:21;;;;;;;27.67;17.20;;;179.90;1971.20;;;;;;4974399;28;20382;-65
2022/03/02 04:25:48;;;;;;;28.35;18.95;;;179.90;1996.80;;;;;;4974011;28;20478;-65
2022/03/02 04:28:14;;;;;;;29.27;17.77;;;179.90;1996.80;;;;;;4974361;28;20037;-65
2022/03/02 04:30:39;;;;;;;25.55;16.25;;;179.70;2022.40;;;;;;4973971;28;20026;-66
2022/03/02 04:33:05;;;;;;;28.35;17.50;;;179.80;1996.80;;;;;;4956564;28;20042;-65
2022/03/02 04:35:31;;;;;;;25.83;17.75;;;179.90;1971.20;;;;;;4974048;28;20023;-65
2022/03/02 04:37:58;;;;;;;28.98;17.02;;;179.70;1996.80;;;;;;4973995;28;20050;-66
2022/03/02 04:40:23;;;;;;;27.55;17.38;;;179.80;1996.80;;;;;;4973868;28;20023;-65
2022/03/02 04:42:50;;;;;;;27.25;17.75;;;179.80;1996.80;;;;;;4973579;28;20050;-65
2022/03/02 04:45:15;;;;;;;22.65;16.27;;;179.80;1996.80;;;;;;4973804;28;20049;-65
2022/03/02 04:47:42;;;;;;;37.80;21.60;;;180.00;1996.80;;;;;;4973683;28;20486;-66
2022/03/02 04:50:11;;;;;;;30.38;18.13;;;179.70;2022.40;;;;;;4973916;28;20082;-65
2022/03/02 04:52:37;;;;;;;30.40;19.27;;;179.70;2022.40;;;;;;4973950;28;20058;-65
2022/03/02 04:55:06;;;;;;;32.58;19.75;;;;;;;;;;4973827;28;20426;-66
2022/03/02 04:57:33;;;;;;;33.72;22.83;;;;;;;;;;4973731;28;20078;-67
2022/03/02 04:59:58;;;;;;;31.42;20.70;;;179.70;2022.40;;;;;;4973605;28;20030;-66
2022/03/02 05:02:24;;;;;;;36.38;26.58;;;179.80;1996.80;;;;;;4973810;28;20034;-65
2022/03/02 05:04:50;;;;;;;34.17;23.75;;;179.90;1996.80;;;;;;4973770;28;20470;-66
2022/03/02 05:07:16;;;;;;;41.20;25.83;;;179.70;2022.40;;;;;;4973595;28;20121;-66
2022/03/02 05:09:43;;;;;;;52.22;28.88;;;179.60;2022.40;;;;;;4974280;28;20097;-66
2022/03/02 05:12:09;;;;;;;41.28;22.48;;;;;;;;;;4977056;28;20019;-67
2022/03/02 05:14:35;;;;;;;34.58;21.73;;;179.50;2252.80;;;;;;4977051;28;20107;-65
2022/03/02 05:17:02;;;;;;;33.40;20.90;;;;;;;;;;4977068;28;20478;-66
2022/03/02 05:19:28;;;;;;;34.10;23.08;;;;;;;;;;4977037;28;20118;-66
2022/03/02 05:21:54;;;;;;;33.33;21.85;;;179.60;2022.40;;;;;;4977005;28;20058;-65
2022/03/02 05:24:19;;;;;;;38.90;23.25;;;179.70;2022.40;;;;;;4976976;28;20035;-65
2022/03/02 05:26:45;;;;;;;33.67;21.15;;;179.60;2048.00;;;;;;4976772;28;20117;-65
2022/03/02 05:29:12;;;;;;;41.15;23.15;;;;;;;;;;4976631;28;20042;-67
2022/03/02 05:31:38;;;;;;;38.92;24.48;;;;;;;;;;4976969;28;20394;-66
2022/03/02 05:34:04;;;;;;;42.85;23.98;;;179.60;2048.00;;;;;;4976731;28;20045;-65
2022/03/02 05:36:30;;;;;;;48.40;26.70;;;179.70;2048.00;;;;;;4976926;28;20478;-65
2022/03/02 05:38:56;;;;;;;40.47;26.95;;;179.70;2048.00;;;;;;4976673;28;20031;-65
2022/03/02 05:41:21;;;;;;;50.08;26.35;;;179.70;2048.00;;;;;;4976417;28;20031;-65
2022/03/02 05:43:48;;;;;;;40.38;25.23;;;179.60;2073.60;;;;;;4976342;28;20019;-65
2022/03/02 05:46:14;;;;;;;44.67;27.02;;;179.60;2252.80;;;;;;4976393;28;20027;-65
2022/03/02 05:48:40;;;;;;;44.67;28.40;;;179.80;2048.00;;;;;;4976510;28;20059;-65
2022/03/02 05:51:06;;;;;;;50.35;26.98;;;179.60;2073.60;;;;;;4976562;28;20038;-65
2022/03/02 05:53:32;;;;;;;54.78;29.30;;;;;;;;;;4976464;28;20478;-66
2022/03/02 05:55:58;;;;;;;54.97;29.92;;;;;;;;;;4976470;28;20483;-66
2022/03/02 05:58:25;;;;;;;60.53;30.25;;;;;;;;;;4976186;28;20058;-65
2022/03/02 06:00:51;;;;;;;50.90;29.02;;;179.50;2099.20;;;;;;4976229;28;20098;-65
2022/03/02 06:03:19;;;;;;;47.22;29.92;;;;;;;;;;4976320;28;20019;-66
2022/03/02 06:05:45;;;;;;;53.92;34.08;;;;;;;;;;4976288;28;20022;-66
2022/03/02 06:08:11;;;;;;;45.15;28.65;;;;;;;;;;4976096;28;20052;-66
2022/03/02 06:10:37;;;;;;;59.33;33.97;;;;;;;;;;4976114;28;20027;-66
2022/03/02 06:13:03;;;;;;;62.65;34.72;;;;;;;;;;4975703;28;20057;-66
2022/03/02 06:15:30;;;;;;;62.28;32.30;;;;;;;;;;4975848;28;20034;-66
2022/03/02 06:18:01;;;;;;;94.35;38.58;;;;;;;;;;4975952;28;20110;-66
2022/03/02 06:20:27;;;;;;;66.47;36.33;;;;;;;;;;4975722;28;20030;-66
2022/03/02 06:22:53;;;;;;;61.80;31.15;;;179.40;2124.80;;;;;;4974703;28;20066;-65
2022/03/02 06:25:19;;;;;;;58.13;31.42;;;179.40;2150.40;;;;;;4975901;28;20038;-65
2022/03/02 06:27:45;;;;;;;72.53;35.72;;;179.80;2073.60;;;;;;4975800;28;20504;-65
2022/03/02 06:30:12;;;;;;;59.47;35.33;;;179.70;2124.80;;;;;;4975804;28;20023;-65
2022/03/02 06:32:38;;;;;;;63.72;39.97;;;179.60;2124.80;;;;;;4975753;28;20054;-65
2022/03/02 06:35:06;;;;;;;68.40;34.90;;;179.80;2124.80;;;;;;4975442;28;20496;-65
2022/03/02 06:37:33;;;;;;;58.15;31.35;;;179.80;2124.80;;;;;;4975482;28;20055;-65
2022/03/02 06:40:01;;;;;;;52.28;32.35;;;179.70;2124.80;;;;;;4975563;28;20022;-65
2022/03/02 06:42:47;;;;;;;45.47;28.55;;;179.70;2099.20;;;;;;4975014;28;20079;-65
2022/03/02 06:45:21;;;;;;;89.40;29.90;;;179.60;2099.20;;;;;;4974678;28;20030;-65
2022/03/02 06:47:56;;;;;;;54.03;28.40;;;179.40;2124.80;;;;;;4975431;28;20038;-66
2022/03/02 06:50:25;;;;;;;38.88;26.25;;;179.50;2124.80;;;;;;4975630;28;20082;-65
2022/03/02 06:52:54;;;;;;;45.60;26.23;;;179.40;2124.80;;;;;;4975411;28;20042;-65
2022/03/02 06:55:21;;;;;;;40.47;24.88;;;179.70;2099.20;;;;;;4975265;28;20026;-65
2022/03/02 06:57:59;;;;;;;49.70;28.45;;;179.70;2073.60;;;;;;4975258;28;20102;-66
2022/03/02 07:00:26;;;;;;;46.63;26.10;;;179.70;2252.80;;;;;;4974965;28;20026;-65
2022/03/02 07:03:07;;;;;;;44.00;24.52;;;179.80;2048.00;;;;;;4975114;28;20081;-66
2022/03/02 07:05:33;;;;;;;44.05;26.50;;;179.60;2073.60;;;;;;4975368;28;20037;-65
2022/03/02 07:08:03;;;;;;;39.83;25.13;;;179.70;2073.60;;;;;;4975185;28;20034;-65
2022/03/02 07:10:33;;;;;;;43.20;25.48;;;179.60;2073.60;;;;;;4975045;28;20074;-65
2022/03/02 07:13:01;;;;;;;40.75;24.98;;;179.70;2252.80;;;;;;4975007;28;20030;-65
2022/03/02 07:15:31;;;;;;;45.63;27.02;;;179.60;2099.20;;;;;;4972860;28;20436;-65
2022/03/02 07:18:02;;;;;;;48.75;28.33;;;179.50;2124.80;;;;;;4974714;28;20082;-65
2022/03/02 07:20:29;;;;;;;67.63;33.97;;;179.60;2124.80;;;;;;4974818;28;20027;-66
2022/03/02 07:22:56;;;;;;;49.42;29.85;;;179.70;2124.80;;;;;;4973340;28;20691;-65
2022/03/02 07:25:25;;;;;;;50.78;34.63;;;179.90;2099.20;;;;;;4974824;28;20027;-65
2022/03/02 07:27:51;;;;;;;53.63;34.35;;;;;;;;;;4974603;28;20031;-66
2022/03/02 07:30:17;;;;;;;42.10;27.33;;;180.00;2073.60;;;;;;4974611;28;20094;-65
2022/03/02 07:32:45;;;;;;;48.28;26.38;;;179.90;2073.60;;;;;;4974427;28;20049;-65
2022/03/02 07:35:14;;;;;;;37.95;24.98;;;179.80;2073.60;;;;;;4974494;28;20441;-64
2022/03/02 07:37:41;;;;;;;42.58;23.77;;;;;;;;;;4974662;28;20464;-66
2022/03/02 07:40:07;;;;;;;40.70;23.10;;;180.10;2048.00;;;;;;4957032;28;20074;-65
2022/03/02 07:42:34;;;;;;;41.53;25.83;;;;;;;;;;4974162;28;20439;-66
2022/03/02 07:44:59;;;;;;;44.20;30.27;;;180.00;2048.00;;;;;;4974334;28;20393;-65
2022/03/02 07:47:26;;;;;;;41.95;28.52;;;179.90;2048.00;;;;;;4974246;28;20039;-65
2022/03/02 07:49:52;;;;;;;48.50;30.90;;;180.00;2073.60;;;;;;4974311;28;20022;-65
2022/03/02 07:52:23;;;;;;;52.30;30.70;;;180.10;2073.60;;;;;;4974376;28;20469;-65
2022/03/02 07:55:03;;;;;;;49.50;27.30;;;180.00;2048.00;;;;;;4974230;28;20030;-65
2022/03/02 07:57:30;;;;;;;42.78;28.08;;;179.80;2048.00;;;;;;4974164;28;20492;-65
2022/03/02 07:59:58;;;;;;;46.55;30.45;;;179.80;2048.00;;;;;;4974032;28;20033;-65
2022/03/02 08:02:25;;;;;;;41.50;27.48;;;179.90;2073.60;;;;;;4973991;28;20401;-65
2022/03/02 08:04:56;;;;;;;60.65;27.48;;;179.80;2048.00;;;;;;4956738;28;20449;-65
2022/03/02 08:07:22;;;;;;;39.22;24.40;;;179.60;2252.80;;;;;;4974345;28;20385;-65
2022/03/02 08:09:51;;;;;;;35.60;23.80;;;179.50;2073.60;;;;;;4974215;28;20023;-65
2022/03/02 08:12:20;;;;;;;52.30;30.00;;;179.60;2073.60;;;;;;4974187;28;20027;-65
2022/03/02 08:14:47;;;;;;;41.83;28.77;;;179.70;2099.20;;;;;;4974024;28;20019;-65
2022/03/02 08:17:13;;;;;;;43.05;27.67;;;179.70;2099.20;;;;;;4956920;28;20034;-67
2022/03/02 08:19:39;;;;;;;37.08;25.00;;;;;;;;;;4973928;28;20029;-66
2022/03/02 08:22:13;;;;;;;46.22;26.65;;;180.00;2022.40;;;;;;4973985;28;20482;-65
2022/03/02 08:24:43;;;;;;;39.53;24.35;;;180.00;2022.40;;;;;;4973914;28;20027;-65
2022/03/02 08:27:13;;;;;;;45.67;26.63;;;180.10;1996.80;;;;;;4973841;28;20109;-65
2022/03/02 08:29:38;;;;;;;41.90;24.73;;;180.10;1996.80;;;;;;4973934;28;20019;-66
2022/03/02 08:32:05;;;;;;;48.38;29.13;;;180.00;1996.80;;;;;;4973881;28;20429;-65
2022/03/02 08:34:33;;;;;;;41.10;26.08;;;180.10;2022.40;;;;;;4973983;28;20378;-66
2022/03/02 08:37:01;;;;;;;43.28;21.63;;;180.10;2022.40;;;;;;4973484;28;20037;-66
2022/03/02 08:39:27;;;;;;;43.65;25.92;;;204.80;1945.60;;;;;;4973850;28;20034;-65
2022/03/02 08:41:54;;;;;;;45.80;26.35;;;180.10;1971.20;;;;;;4973607;28;20521;-66
2022/03/02 08:44:21;;;;;;;54.25;29.20;;;180.10;1996.80;;;;;;4973739;28;20393;-66
2022/03/02 08:46:48;;;;;;;57.08;27.45;;;180.10;2022.40;;;;;;4977428;28;20035;-65
2022/03/02 08:49:18;;;;;;;52.05;25.42;;;204.80;1996.80;;;;;;4977598;28;20026;-65
2022/03/02 08:51:44;;;;;;;55.30;30.67;;;204.90;1996.80;;;;;;4977181;28;20026;-65
2022/03/02 08:54:15;;;;;;;45.50;25.10;;;204.90;2022.40;;;;;;4977306;28;20035;-65
2022/03/02 08:56:41;;;;;;;41.03;24.47;;;204.90;1996.80;;;;;;4977284;28;20022;-64
2022/03/02 08:59:10;;;;;;;60.03;31.83;;;205.00;1945.60;;;;;;4977210;28;20050;-65
2022/03/02 09:01:40;;;;;;;50.45;28.33;;;205.00;1945.60;;;;;;4977186;28;20027;-65
2022/03/02 09:04:06;;;;;;;43.42;26.08;;;;;;;;;;4977277;28;20486;-66
2022/03/02 09:06:35;;;;;;;49.70;25.10;;;;;;;;;;4976989;28;20045;-66
2022/03/02 09:09:01;;;;;;;52.15;29.23;;;204.80;1945.60;;;;;;4977143;28;20030;-65
2022/03/02 09:11:27;;;;;;;43.80;25.65;;;204.90;1945.60;;;;;;4977119;28;20486;-65
2022/03/02 09:13:52;;;;;;;52.38;29.45;;;204.80;1920.00;;;;;;4977395;28;20027;-66
2022/03/02 09:16:18;;;;;;;57.63;27.20;;;204.80;1920.00;;;;;;4976950;28;20019;-65
2022/03/02 09:18:45;;;;;;;51.47;26.23;;;204.90;1920.00;;;;;;4977105;28;20073;-64
2022/03/02 09:21:13;;;;;;;49.65;25.92;;;205.00;1894.40;;;;;;4976801;28;20018;-65
2022/03/02 09:23:41;;;;;;;47.00;26.65;;;;;;;;;;4977205;28;20161;-65
2022/03/02 09:26:12;;;;;;;48.42;26.20;;;;;;;;;;4976860;28;20544;-66
2022/03/02 09:28:40;;;;;;;78.60;28.55;;;;;;;;;;4976822;28;20066;-67
2022/03/02 09:31:08;;;;;;;40.92;23.17;;;;;;;;;;4976598;28;20027;-66
2022/03/02 09:33:37;;;;;;;39.95;25.85;;;;;;;;;;4976813;28;20026;-66
2022/03/02 09:36:07;;;;;;;32.25;21.13;;;;;;;;;;4976698;28;20085;-65
2022/03/02 09:38:34;;;;;;;31.85;19.15;;;;;;;;;;4959402;28;20061;-65
2022/03/02 09:41:07;;;;;;;31.48;19.50;;;;;;;;;;4976595;28;20126;-65
2022/03/02 09:43:35;;;;;;;38.47;22.67;;;;;;;;;;4976133;28;20409;-66
2022/03/02 09:46:05;;;;;;;53.35;26.75;;;;;;;;;;4976273;28;20026;-66
2022/03/02 09:48:33;;;;;;;61.40;29.58;;;;;;;;;;4976678;28;20038;-65
2022/03/02 09:51:06;;;;;;;47.45;25.55;;;;;;;;;;4976317;28;20029;-66
2022/03/02 09:53:33;;;;;;;44.13;22.55;;;;;;;;;;4976632;28;20036;-65
2022/03/02 09:56:05;;;;;;;36.97;21.10;;;;;;;;;;4976216;28;20041;-66
2022/03/02 09:58:35;;;;;;;33.63;19.92;;;;;;;;;;4976501;28;20110;-65
2022/03/02 10:01:01;;;;;;;28.13;16.50;;;;;;;;;;4976183;28;20037;-66
2022/03/02 10:03:37;;;;;;;45.85;20.52;;;230.50;1689.60;;;;;;4976220;28;20038;-64
2022/03/02 10:06:05;;;;;;;44.60;21.73;;;230.50;1689.60;;;;;;4976111;28;20039;-65
2022/03/02 10:08:35;;;;;;;38.83;23.45;;;;;;;;;;4976008;28;20398;-65
2022/03/02 10:11:06;;;;;;;32.00;20.40;;;;;;;;;;4976109;28;20023;-66
2022/03/02 10:13:32;;;;;;;62.25;25.08;;;;;;;;;;4976171;28;20027;-66
2022/03/02 10:16:01;;;;;;;38.47;22.10;;;;;;;;;;4975995;28;20033;-66
2022/03/02 10:18:30;;;;;;;45.22;28.38;;;;;;;;;;4976011;28;20030;-66
2022/03/02 10:21:01;;;;;;;38.95;21.35;;;230.50;1920.00;;;;;;4975691;28;20035;-65
2022/03/02 10:23:34;;;;;;;41.20;23.60;;;230.50;1664.00;;;;;;4975957;28;20046;-65
2022/03/02 10:26:08;;;;;;;32.42;19.55;;;230.50;1664.00;;;;;;4975779;28;20061;-65
2022/03/02 10:28:53;;;;;;;44.90;20.52;;;230.40;1664.00;;;;;;4975688;28;20061;-65
2022/03/02 10:31:21;;;;;;;39.58;21.63;;;230.50;1638.40;;;;;;4975427;28;20022;-65
2022/03/02 10:34:10;;;;;;;35.45;21.48;;;230.60;1664.00;;;;;;4975860;28;20054;-65
2022/03/02 10:36:42;;;;;;;58.03;26.85;;;230.60;1638.40;;;;;;4975634;28;20386;-65
2022/03/02 10:39:10;;;;;;;46.53;29.65;;;230.60;1638.40;;;;;;4975556;28;20062;-65
2022/03/02 10:41:39;;;;;;;53.63;28.85;;;;;;;;;;4975101;28;20103;-66
2022/03/02 10:44:24;;;;;;;88.28;32.30;;;;;;;;;;4975172;28;20583;-66
2022/03/02 10:46:55;;;;;;;57.50;33.10;;;;;;;;;;4975361;28;20041;-66
2022/03/02 10:49:22;;;;;;;38.92;20.17;;;;;;;;;;4975477;28;20023;-66
2022/03/02 10:51:48;;;;;;;36.13;18.98;;;;;;;;;;4975133;28;20397;-66
2022/03/02 10:54:21;;;;;;;47.35;33.55;;;231.00;1536.00;;;;;;4975272;28;20023;-65
2022/03/02 10:56:51;;;;;;;80.03;63.15;;;231.10;1536.00;;;;;;4974975;28;20109;-65
2022/03/02 10:59:19;;;;;;;62.38;43.58;;;;;;;;;;4975397;28;20085;-66
2022/03/02 11:01:46;;;;;;;51.97;27.27;;;;;;;;;;4974802;28;20123;-66
2022/03/02 11:04:18;;;;;;;42.60;19.10;;;230.70;1612.80;;;;;;4974983;28;20053;-65
2022/03/02 11:06:44;;;;;;;33.85;24.08;;;;;;;;;;4974902;28;20042;-66
2022/03/02 11:09:10;;;;;;;42.45;21.10;;;;;;;;;;4956896;28;20509;-66
2022/03/02 11:11:36;;;;;;;53.85;36.17;;;;;;;;;;4974799;28;20572;-66
2022/03/02 11:14:04;;;;;;;48.00;32.42;;;;;;;;;;4974756;28;20031;-66
2022/03/02 11:16:30;;;;;;;41.05;24.77;;;;;;;;;;4974852;28;20037;-66
2022/03/02 11:18:56;;;;;;;41.05;23.63;;;;;;;;;;4974520;28;20102;-66
2022/03/02 11:21:32;;;;;;;41.65;23.08;;;231.10;1817.60;;;;;;4974949;28;20023;-65
2022/03/02 11:24:05;;;;;;;33.17;24.45;;;231.10;1561.60;;;;;;4974845;28;20031;-65
2022/03/02 11:26:34;;;;;;;42.00;22.27;;;;;;;;;;4974602;28;20549;-66
2022/03/02 11:29:00;;;;;;;32.28;20.35;;;;;;;;;;4974609;28;20026;-66
2022/03/02 11:31:30;;;;;;;34.28;22.83;;;;;;;;;;4974771;28;20524;-68
2022/03/02 11:34:14;;;;;;;28.90;19.45;;;;;;;;;;4974583;28;20023;-67
2022/03/02 11:36:42;;;;;;;24.23;17.17;;;;;;;;;;4974345;28;20469;-66
2022/03/02 11:39:09;;;;;;;27.23;18.75;;;256.90;1408.00;;;;;;4974236;28;20478;-66
2022/03/02 11:41:37;;;;;;;36.65;21.00;;;256.90;1408.00;;;;;;4974361;28;20054;-66
2022/03/02 11:44:05;;;;;;;33.30;20.98;;;;;;;;;;4974522;28;20049;-67
2022/03/02 11:46:31;;;;;;;23.38;15.93;;;;;;;;;;4974469;28;20061;-67
2022/03/02 11:49:04;;;;;;;35.00;19.60;;;;;;;;;;4974601;28;20436;-67
2022/03/02 11:51:30;;;;;;;29.58;18.98;;;;;;;;;;4973970;28;20034;-67
2022/03/02 11:53:59;;;;;;;22.48;15.35;;;;;;;;;;4974241;28;20035;-66
2022/03/02 11:56:27;;;;;;;22.98;16.17;;;;;;;;;;4974483;28;20027;-67
2022/03/02 11:58:54;;;;;;;42.95;18.30;;;;;;;;;;4974374;28;20109;-66
2022/03/02 12:01:21;;;;;;;24.92;16.48;;;;;;;;;;4974437;28;20046;-67
2022/03/02 12:04:00;;;;;;;21.55;13.52;;;;;;;;;;4974035;28;20026;-67
2022/03/02 12:06:26;;;;;;;27.85;18.73;;;;;;;;;;4974030;28;20601;-67
2022/03/02 12:08:54;;;;;;;33.38;20.92;;;282.00;1459.20;;;;;;4974000;28;20034;-66
2022/03/02 12:11:24;;;;;;;35.30;21.27;;;;;;;;;;4974540;28;20019;-66
2022/03/02 12:14:04;;;;;;;37.13;20.45;;;;;;;;;;4974048;28;20386;-67
2022/03/02 12:16:40;;;;;;;25.30;18.23;;;;;;;;;;4973872;28;20038;-67
2022/03/02 12:19:26;;;;;;;29.60;16.65;;;282.10;1331.20;;;;;;4973879;28;20046;-66
2022/03/02 12:22:05;;;;;;;36.47;25.52;;;282.20;1331.20;;;;;;4978017;28;20027;-65
2022/03/02 12:24:35;;;;;;;49.83;27.33;;;282.10;1356.80;;;;;;4977880;28;20033;-65
2022/03/02 12:27:11;;;;;;;34.03;20.65;;;282.20;1356.80;;;;;;4977464;28;20031;-66
2022/03/02 12:29:42;;;;;;;45.10;22.65;;;282.10;1382.40;;;;;;4977882;28;20026;-66
2022/03/02 12:32:10;;;;;;;27.40;18.97;;;282.40;1382.40;;;;;;4977728;28;20050;-66
2022/03/02 12:34:49;;;;;;;44.58;21.73;;;;;;;;;;4978036;28;20031;-67